sensor_id;sensor_type;location;lat;lon;timestamp;temperature;humidity
64961;SHT31;51487;52.266;10.542;2023-04-03T00:01:16;1.28;82.14
64961;SHT31;51487;52.266;10.542;2023-04-03T00:03:41;1.18;82.45
64961;SHT31;51487;52.266;10.542;2023-04-03T00:06:07;1.15;82.72
64961;SHT31;51487;52.266;10.542;2023-04-03T00:08:34;1.15;82.60
64961;SHT31;51487;52.266;10.542;2023-04-03T00:11:00;1.14;82.73
64961;SHT31;51487;52.266;10.542;2023-04-03T00:13:25;1.09;82.78
64961;SHT31;51487;52.266;10.542;2023-04-03T00:15:51;0.99;83.26
64961;SHT31;51487;52.266;10.542;2023-04-03T00:18:17;1.06;83.09
64961;SHT31;51487;52.266;10.542;2023-04-03T00:20:43;0.98;83.38
64961;SHT31;51487;52.266;10.542;2023-04-03T00:23:08;1.01;83.35
64961;SHT31;51487;52.266;10.542;2023-04-03T00:25:34;1.01;83.40
64961;SHT31;51487;52.266;10.542;2023-04-03T00:28:00;0.98;83.41
64961;SHT31;51487;52.266;10.542;2023-04-03T00:30:25;0.92;83.58
64961;SHT31;51487;52.266;10.542;2023-04-03T00:32:52;0.94;83.67
64961;SHT31;51487;52.266;10.542;2023-04-03T00:35:19;0.87;83.79
64961;SHT31;51487;52.266;10.542;2023-04-03T00:37:45;0.88;83.88
64961;SHT31;51487;52.266;10.542;2023-04-03T00:40:12;0.84;84.01
64961;SHT31;51487;52.266;10.542;2023-04-03T00:42:40;0.80;84.04
64961;SHT31;51487;52.266;10.542;2023-04-03T00:47:31;0.80;84.26
64961;SHT31;51487;52.266;10.542;2023-04-03T00:49:58;0.81;84.35
64961;SHT31;51487;52.266;10.542;2023-04-03T00:52:28;0.77;84.47
64961;SHT31;51487;52.266;10.542;2023-04-03T00:54:57;0.73;84.80
64961;SHT31;51487;52.266;10.542;2023-04-03T00:57:26;0.67;85.05
64961;SHT31;51487;52.266;10.542;2023-04-03T00:59:56;0.68;85.00
64961;SHT31;51487;52.266;10.542;2023-04-03T01:02:22;0.66;85.00
64961;SHT31;51487;52.266;10.542;2023-04-03T01:04:48;0.63;85.09
64961;SHT31;51487;52.266;10.542;2023-04-03T01:09:48;0.52;85.42
64961;SHT31;51487;52.266;10.542;2023-04-03T01:14:41;0.43;85.71
64961;SHT31;51487;52.266;10.542;2023-04-03T01:25:44;0.32;86.12
64961;SHT31;51487;52.266;10.542;2023-04-03T01:28:15;0.30;86.17
64961;SHT31;51487;52.266;10.542;2023-04-03T01:33:37;0.23;86.44
64961;SHT31;51487;52.266;10.542;2023-04-03T01:36:03;0.25;86.56
64961;SHT31;51487;52.266;10.542;2023-04-03T01:38:29;0.22;86.50
64961;SHT31;51487;52.266;10.542;2023-04-03T01:40:54;0.17;86.61
64961;SHT31;51487;52.266;10.542;2023-04-03T01:43:19;0.19;86.63
64961;SHT31;51487;52.266;10.542;2023-04-03T01:45:45;0.19;86.62
64961;SHT31;51487;52.266;10.542;2023-04-03T01:48:12;0.15;86.73
64961;SHT31;51487;52.266;10.542;2023-04-03T01:50:38;0.12;86.85
64961;SHT31;51487;52.266;10.542;2023-04-03T01:53:03;0.06;87.00
64961;SHT31;51487;52.266;10.542;2023-04-03T01:55:29;0.03;87.01
64961;SHT31;51487;52.266;10.542;2023-04-03T01:57:54;0.03;87.12
64961;SHT31;51487;52.266;10.542;2023-04-03T02:00:20;0.03;87.08
64961;SHT31;51487;52.266;10.542;2023-04-03T02:02:45;0.03;87.15
64961;SHT31;51487;52.266;10.542;2023-04-03T02:05:10;0.03;87.14
64961;SHT31;51487;52.266;10.542;2023-04-03T02:07:36;0.03;87.13
64961;SHT31;51487;52.266;10.542;2023-04-03T02:10:02;0.05;86.95
64961;SHT31;51487;52.266;10.542;2023-04-03T02:12:27;-0.02;87.11
64961;SHT31;51487;52.266;10.542;2023-04-03T02:14:53;-0.04;87.19
64961;SHT31;51487;52.266;10.542;2023-04-03T02:17:18;-0.01;87.11
64961;SHT31;51487;52.266;10.542;2023-04-03T02:19:43;-0.01;87.06
64961;SHT31;51487;52.266;10.542;2023-04-03T02:22:09;0.02;86.99
64961;SHT31;51487;52.266;10.542;2023-04-03T02:24:34;-0.04;87.25
64961;SHT31;51487;52.266;10.542;2023-04-03T02:27:00;-0.02;87.25
64961;SHT31;51487;52.266;10.542;2023-04-03T02:29:25;0.01;87.12
64961;SHT31;51487;52.266;10.542;2023-04-03T02:31:51;-0.04;87.18
64961;SHT31;51487;52.266;10.542;2023-04-03T02:34:16;-0.09;87.50
64961;SHT31;51487;52.266;10.542;2023-04-03T02:36:42;-0.09;87.35
64961;SHT31;51487;52.266;10.542;2023-04-03T02:39:08;-0.11;87.47
64961;SHT31;51487;52.266;10.542;2023-04-03T02:41:33;-0.09;87.42
64961;SHT31;51487;52.266;10.542;2023-04-03T02:44:05;-0.11;87.53
64961;SHT31;51487;52.266;10.542;2023-04-03T02:46:31;-0.08;87.33
64961;SHT31;51487;52.266;10.542;2023-04-03T02:48:57;-0.12;87.33
64961;SHT31;51487;52.266;10.542;2023-04-03T02:51:22;-0.08;87.38
64961;SHT31;51487;52.266;10.542;2023-04-03T02:53:49;-0.12;87.34
64961;SHT31;51487;52.266;10.542;2023-04-03T02:56:14;-0.18;87.46
64961;SHT31;51487;52.266;10.542;2023-04-03T02:58:40;-0.16;87.43
64961;SHT31;51487;52.266;10.542;2023-04-03T03:01:05;-0.14;87.32
64961;SHT31;51487;52.266;10.542;2023-04-03T03:03:31;-0.25;87.57
64961;SHT31;51487;52.266;10.542;2023-04-03T03:06:07;-0.22;87.65
64961;SHT31;51487;52.266;10.542;2023-04-03T03:08:33;-0.21;87.56
64961;SHT31;51487;52.266;10.542;2023-04-03T03:10:59;-0.23;87.64
64961;SHT31;51487;52.266;10.542;2023-04-03T03:13:25;-0.28;87.74
64961;SHT31;51487;52.266;10.542;2023-04-03T03:15:50;-0.26;87.67
64961;SHT31;51487;52.266;10.542;2023-04-03T03:18:16;-0.30;87.59
64961;SHT31;51487;52.266;10.542;2023-04-03T03:20:42;-0.30;87.83
64961;SHT31;51487;52.266;10.542;2023-04-03T03:23:07;-0.30;87.83
64961;SHT31;51487;52.266;10.542;2023-04-03T03:25:32;-0.30;87.73
64961;SHT31;51487;52.266;10.542;2023-04-03T03:27:58;-0.28;87.64
64961;SHT31;51487;52.266;10.542;2023-04-03T03:30:23;-0.30;87.71
64961;SHT31;51487;52.266;10.542;2023-04-03T03:32:49;-0.30;87.70
64961;SHT31;51487;52.266;10.542;2023-04-03T03:35:14;-0.32;87.78
64961;SHT31;51487;52.266;10.542;2023-04-03T03:37:39;-0.30;87.71
64961;SHT31;51487;52.266;10.542;2023-04-03T03:40:05;-0.36;87.93
64961;SHT31;51487;52.266;10.542;2023-04-03T03:42:31;-0.37;87.91
64961;SHT31;51487;52.266;10.542;2023-04-03T03:44:56;-0.42;87.99
64961;SHT31;51487;52.266;10.542;2023-04-03T03:47:22;-0.39;88.00
64961;SHT31;51487;52.266;10.542;2023-04-03T03:49:47;-0.48;88.10
64961;SHT31;51487;52.266;10.542;2023-04-03T03:52:13;-0.52;88.12
64961;SHT31;51487;52.266;10.542;2023-04-03T03:54:38;-0.50;88.30
64961;SHT31;51487;52.266;10.542;2023-04-03T03:57:04;-0.48;88.17
64961;SHT31;51487;52.266;10.542;2023-04-03T03:59:29;-0.48;88.22
64961;SHT31;51487;52.266;10.542;2023-04-03T04:01:55;-0.49;88.21
64961;SHT31;51487;52.266;10.542;2023-04-03T04:04:21;-0.50;88.23
64961;SHT31;51487;52.266;10.542;2023-04-03T04:06:46;-0.54;88.38
64961;SHT31;51487;52.266;10.542;2023-04-03T04:09:12;-0.53;88.30
64961;SHT31;51487;52.266;10.542;2023-04-03T04:11:37;-0.60;88.38
64961;SHT31;51487;52.266;10.542;2023-04-03T04:14:05;-0.54;88.37
64961;SHT31;51487;52.266;10.542;2023-04-03T04:16:30;-0.52;88.33
64961;SHT31;51487;52.266;10.542;2023-04-03T04:18:55;-0.60;88.45
64961;SHT31;51487;52.266;10.542;2023-04-03T04:21:21;-0.64;88.63
64961;SHT31;51487;52.266;10.542;2023-04-03T04:23:46;-0.56;88.43
64961;SHT31;51487;52.266;10.542;2023-04-03T04:26:12;-0.53;88.40
64961;SHT31;51487;52.266;10.542;2023-04-03T04:28:37;-0.50;88.30
64961;SHT31;51487;52.266;10.542;2023-04-03T04:31:02;-0.53;88.24
64961;SHT31;51487;52.266;10.542;2023-04-03T04:33:28;-0.54;88.29
64961;SHT31;51487;52.266;10.542;2023-04-03T04:35:53;-0.48;88.17
64961;SHT31;51487;52.266;10.542;2023-04-03T04:38:18;-0.53;88.20
64961;SHT31;51487;52.266;10.542;2023-04-03T04:40:44;-0.46;88.08
64961;SHT31;51487;52.266;10.542;2023-04-03T04:43:09;-0.44;88.02
64961;SHT31;51487;52.266;10.542;2023-04-03T04:45:39;-0.49;88.05
64961;SHT31;51487;52.266;10.542;2023-04-03T04:48:04;-0.56;88.25
64961;SHT31;51487;52.266;10.542;2023-04-03T04:50:30;-0.50;88.18
64961;SHT31;51487;52.266;10.542;2023-04-03T04:52:55;-0.46;88.05
64961;SHT31;51487;52.266;10.542;2023-04-03T04:55:21;-0.49;88.01
64961;SHT31;51487;52.266;10.542;2023-04-03T04:57:46;-0.50;88.16
64961;SHT31;51487;52.266;10.542;2023-04-03T05:00:12;-0.48;88.07
64961;SHT31;51487;52.266;10.542;2023-04-03T05:02:38;-0.52;88.20
64961;SHT31;51487;52.266;10.542;2023-04-03T05:05:03;-0.40;87.93
64961;SHT31;51487;52.266;10.542;2023-04-03T05:07:29;-0.48;87.99
64961;SHT31;51487;52.266;10.542;2023-04-03T05:09:54;-0.43;88.14
64961;SHT31;51487;52.266;10.542;2023-04-03T05:12:20;-0.44;88.07
64961;SHT31;51487;52.266;10.542;2023-04-03T05:14:45;-0.42;88.05
64961;SHT31;51487;52.266;10.542;2023-04-03T05:17:10;-0.40;88.17
64961;SHT31;51487;52.266;10.542;2023-04-03T05:19:36;-0.44;88.24
64961;SHT31;51487;52.266;10.542;2023-04-03T05:22:02;-0.40;88.27
64961;SHT31;51487;52.266;10.542;2023-04-03T05:24:27;-0.32;88.04
64961;SHT31;51487;52.266;10.542;2023-04-03T05:26:53;-0.26;87.72
64961;SHT31;51487;52.266;10.542;2023-04-03T05:29:18;-0.23;87.74
64961;SHT31;51487;52.266;10.542;2023-04-03T05:31:43;-0.25;87.72
64961;SHT31;51487;52.266;10.542;2023-04-03T05:34:09;-0.19;87.88
64961;SHT31;51487;52.266;10.542;2023-04-03T05:36:34;-0.15;87.71
64961;SHT31;51487;52.266;10.542;2023-04-03T05:39:00;-0.16;87.74
64961;SHT31;51487;52.266;10.542;2023-04-03T05:41:25;-0.09;87.77
64961;SHT31;51487;52.266;10.542;2023-04-03T05:43:51;-0.11;87.78
64961;SHT31;51487;52.266;10.542;2023-04-03T05:46:18;-0.08;87.77
64961;SHT31;51487;52.266;10.542;2023-04-03T05:48:44;0.01;87.73
64961;SHT31;51487;52.266;10.542;2023-04-03T05:51:16;0.01;87.60
64961;SHT31;51487;52.266;10.542;2023-04-03T05:53:42;0.06;87.50
64961;SHT31;51487;52.266;10.542;2023-04-03T05:56:08;0.12;87.26
64961;SHT31;51487;52.266;10.542;2023-04-03T05:58:34;0.12;87.41
64961;SHT31;51487;52.266;10.542;2023-04-03T06:00:59;0.16;87.22
64961;SHT31;51487;52.266;10.542;2023-04-03T06:03:25;0.20;87.17
64961;SHT31;51487;52.266;10.542;2023-04-03T06:05:50;0.32;86.92
64961;SHT31;51487;52.266;10.542;2023-04-03T06:08:16;0.30;86.53
64961;SHT31;51487;52.266;10.542;2023-04-03T06:10:41;0.30;86.70
64961;SHT31;51487;52.266;10.542;2023-04-03T06:13:06;0.36;86.59
64961;SHT31;51487;52.266;10.542;2023-04-03T06:15:33;0.40;86.20
64961;SHT31;51487;52.266;10.542;2023-04-03T06:17:59;0.47;86.15
64961;SHT31;51487;52.266;10.542;2023-04-03T06:20:24;0.54;86.02
64961;SHT31;51487;52.266;10.542;2023-04-03T06:22:50;0.54;85.80
64961;SHT31;51487;52.266;10.542;2023-04-03T06:25:15;0.54;85.57
64961;SHT31;51487;52.266;10.542;2023-04-03T06:27:42;0.54;85.62
64961;SHT31;51487;52.266;10.542;2023-04-03T06:30:08;0.56;85.61
64961;SHT31;51487;52.266;10.542;2023-04-03T06:32:33;0.53;85.51
64961;SHT31;51487;52.266;10.542;2023-04-03T06:34:59;0.64;85.29
64961;SHT31;51487;52.266;10.542;2023-04-03T06:37:25;0.64;85.11
64961;SHT31;51487;52.266;10.542;2023-04-03T06:39:51;0.60;85.33
64961;SHT31;51487;52.266;10.542;2023-04-03T06:42:16;0.74;85.11
64961;SHT31;51487;52.266;10.542;2023-04-03T06:44:42;0.80;84.62
64961;SHT31;51487;52.266;10.542;2023-04-03T06:47:11;0.85;84.23
64961;SHT31;51487;52.266;10.542;2023-04-03T06:49:37;0.92;84.26
64961;SHT31;51487;52.266;10.542;2023-04-03T06:52:02;0.99;83.78
64961;SHT31;51487;52.266;10.542;2023-04-03T06:54:28;1.11;83.46
64961;SHT31;51487;52.266;10.542;2023-04-03T06:56:53;1.14;83.38
64961;SHT31;51487;52.266;10.542;2023-04-03T06:59:18;1.12;83.41
64961;SHT31;51487;52.266;10.542;2023-04-03T07:01:44;1.25;83.37
64961;SHT31;51487;52.266;10.542;2023-04-03T07:04:10;1.29;82.83
64961;SHT31;51487;52.266;10.542;2023-04-03T07:06:35;1.39;82.95
64961;SHT31;51487;52.266;10.542;2023-04-03T07:09:01;1.46;82.70
64961;SHT31;51487;52.266;10.542;2023-04-03T07:11:27;1.66;82.31
64961;SHT31;51487;52.266;10.542;2023-04-03T07:13:53;1.81;81.37
64961;SHT31;51487;52.266;10.542;2023-04-03T07:16:19;1.91;80.50
64961;SHT31;51487;52.266;10.542;2023-04-03T07:18:45;1.93;80.53
64961;SHT31;51487;52.266;10.542;2023-04-03T07:21:11;2.00;80.16
64961;SHT31;51487;52.266;10.542;2023-04-03T07:23:36;2.11;79.83
64961;SHT31;51487;52.266;10.542;2023-04-03T07:26:02;2.13;79.45
64961;SHT31;51487;52.266;10.542;2023-04-03T07:28:28;2.22;79.03
64961;SHT31;51487;52.266;10.542;2023-04-03T07:31:01;2.31;78.95
64961;SHT31;51487;52.266;10.542;2023-04-03T07:33:27;2.35;79.32
64961;SHT31;51487;52.266;10.542;2023-04-03T07:35:52;2.52;78.41
64961;SHT31;51487;52.266;10.542;2023-04-03T07:38:18;2.64;78.41
64961;SHT31;51487;52.266;10.542;2023-04-03T07:40:48;2.73;78.03
64961;SHT31;51487;52.266;10.542;2023-04-03T07:43:15;2.75;77.28
64961;SHT31;51487;52.266;10.542;2023-04-03T07:45:41;2.87;77.29
64961;SHT31;51487;52.266;10.542;2023-04-03T07:48:09;2.96;76.99
64961;SHT31;51487;52.266;10.542;2023-04-03T07:50:34;2.99;76.41
64961;SHT31;51487;52.266;10.542;2023-04-03T07:53:01;3.07;76.32
64961;SHT31;51487;52.266;10.542;2023-04-03T07:55:29;3.10;76.40
64961;SHT31;51487;52.266;10.542;2023-04-03T07:57:54;3.14;76.80
64961;SHT31;51487;52.266;10.542;2023-04-03T08:00:21;3.18;76.16
64961;SHT31;51487;52.266;10.542;2023-04-03T08:02:46;3.27;75.10
64961;SHT31;51487;52.266;10.542;2023-04-03T08:05:18;3.25;75.10
64961;SHT31;51487;52.266;10.542;2023-04-03T08:07:44;3.42;74.48
64961;SHT31;51487;52.266;10.542;2023-04-03T08:10:09;3.52;74.46
64961;SHT31;51487;52.266;10.542;2023-04-03T08:12:35;3.44;74.49
64961;SHT31;51487;52.266;10.542;2023-04-03T08:15:02;3.68;74.62
64961;SHT31;51487;52.266;10.542;2023-04-03T08:17:28;3.81;73.96
64961;SHT31;51487;52.266;10.542;2023-04-03T08:19:53;3.90;72.99
64961;SHT31;51487;52.266;10.542;2023-04-03T08:22:19;3.94;72.03
64961;SHT31;51487;52.266;10.542;2023-04-03T08:24:45;3.96;71.47
64961;SHT31;51487;52.266;10.542;2023-04-03T08:27:10;3.94;70.89
64961;SHT31;51487;52.266;10.542;2023-04-03T08:29:35;3.99;70.51
64961;SHT31;51487;52.266;10.542;2023-04-03T08:32:03;3.85;70.35
64961;SHT31;51487;52.266;10.542;2023-04-03T08:34:29;3.89;69.77
64961;SHT31;51487;52.266;10.542;2023-04-03T08:36:54;3.96;69.84
64961;SHT31;51487;52.266;10.542;2023-04-03T08:39:20;4.07;68.82
64961;SHT31;51487;52.266;10.542;2023-04-03T08:41:46;4.07;68.72
64961;SHT31;51487;52.266;10.542;2023-04-03T08:49:42;4.23;66.22
64961;SHT31;51487;52.266;10.542;2023-04-03T08:52:41;4.25;65.90
64961;SHT31;51487;52.266;10.542;2023-04-03T08:55:16;4.27;66.02
64961;SHT31;51487;52.266;10.542;2023-04-03T08:57:44;4.24;65.36
64961;SHT31;51487;52.266;10.542;2023-04-03T09:02:59;4.51;65.67
64961;SHT31;51487;52.266;10.542;2023-04-03T09:08:29;4.71;65.70
64961;SHT31;51487;52.266;10.542;2023-04-03T09:16:21;4.89;64.12
64961;SHT31;51487;52.266;10.542;2023-04-03T09:18:57;4.97;63.59
64961;SHT31;51487;52.266;10.542;2023-04-03T09:21:37;5.00;63.65
64961;SHT31;51487;52.266;10.542;2023-04-03T09:24:05;4.95;63.13
64961;SHT31;51487;52.266;10.542;2023-04-03T09:29:08;4.85;64.40
64961;SHT31;51487;52.266;10.542;2023-04-03T09:31:39;5.03;63.60
64961;SHT31;51487;52.266;10.542;2023-04-03T09:36:49;5.02;62.74
64961;SHT31;51487;52.266;10.542;2023-04-03T09:39:19;5.18;63.01
64961;SHT31;51487;52.266;10.542;2023-04-03T09:41:59;5.30;62.65
64961;SHT31;51487;52.266;10.542;2023-04-03T09:44:31;5.39;62.72
64961;SHT31;51487;52.266;10.542;2023-04-03T09:46:56;5.81;61.69
64961;SHT31;51487;52.266;10.542;2023-04-03T09:49:22;5.89;60.81
64961;SHT31;51487;52.266;10.542;2023-04-03T09:51:48;5.97;59.91
64961;SHT31;51487;52.266;10.542;2023-04-03T09:56:51;5.98;59.12
64961;SHT31;51487;52.266;10.542;2023-04-03T09:59:18;5.92;59.31
64961;SHT31;51487;52.266;10.542;2023-04-03T10:01:58;5.64;60.20
64961;SHT31;51487;52.266;10.542;2023-04-03T10:04:24;5.57;60.91
64961;SHT31;51487;52.266;10.542;2023-04-03T10:06:52;5.57;60.80
64961;SHT31;51487;52.266;10.542;2023-04-03T10:09:26;5.64;60.56
64961;SHT31;51487;52.266;10.542;2023-04-03T10:12:10;5.57;60.16
64961;SHT31;51487;52.266;10.542;2023-04-03T10:14:57;5.54;60.32
64961;SHT31;51487;52.266;10.542;2023-04-03T10:17:36;5.81;60.32
64961;SHT31;51487;52.266;10.542;2023-04-03T10:20:30;5.78;59.07
64961;SHT31;51487;52.266;10.542;2023-04-03T10:23:14;5.89;59.10
64961;SHT31;51487;52.266;10.542;2023-04-03T10:26:14;5.95;58.56
64961;SHT31;51487;52.266;10.542;2023-04-03T10:28:54;5.87;58.34
64961;SHT31;51487;52.266;10.542;2023-04-03T10:31:26;5.71;57.48
64961;SHT31;51487;52.266;10.542;2023-04-03T10:34:31;5.54;57.78
64961;SHT31;51487;52.266;10.542;2023-04-03T10:37:18;5.52;58.22
64961;SHT31;51487;52.266;10.542;2023-04-03T10:42:42;5.50;58.41
64961;SHT31;51487;52.266;10.542;2023-04-03T10:53:23;6.63;54.95
64961;SHT31;51487;52.266;10.542;2023-04-03T10:58:44;7.07;53.11
64961;SHT31;51487;52.266;10.542;2023-04-03T11:01:16;6.87;53.41
64961;SHT31;51487;52.266;10.542;2023-04-03T11:03:46;6.78;53.23
64961;SHT31;51487;52.266;10.542;2023-04-03T11:06:14;6.78;54.28
64961;SHT31;51487;52.266;10.542;2023-04-03T11:09:01;6.81;54.55
64961;SHT31;51487;52.266;10.542;2023-04-03T11:11:33;7.08;54.49
64961;SHT31;51487;52.266;10.542;2023-04-03T11:14:10;6.83;53.84
64961;SHT31;51487;52.266;10.542;2023-04-03T11:16:42;6.51;54.14
64961;SHT31;51487;52.266;10.542;2023-04-03T11:19:16;6.36;54.90
64961;SHT31;51487;52.266;10.542;2023-04-03T11:24:36;5.98;55.17
64961;SHT31;51487;52.266;10.542;2023-04-03T11:27:04;5.92;55.77
64961;SHT31;51487;52.266;10.542;2023-04-03T11:29:36;5.92;56.30
64961;SHT31;51487;52.266;10.542;2023-04-03T11:34:39;5.92;55.29
64961;SHT31;51487;52.266;10.542;2023-04-03T11:37:15;5.89;55.65
64961;SHT31;51487;52.266;10.542;2023-04-03T11:39:52;5.87;55.87
64961;SHT31;51487;52.266;10.542;2023-04-03T11:44:46;6.30;53.61
64961;SHT31;51487;52.266;10.542;2023-04-03T11:47:45;6.77;52.81
64961;SHT31;51487;52.266;10.542;2023-04-03T12:05:48;7.18;51.28
64961;SHT31;51487;52.266;10.542;2023-04-03T12:08:27;7.69;50.90
64961;SHT31;51487;52.266;10.542;2023-04-03T12:11:14;8.17;50.43
64961;SHT31;51487;52.266;10.542;2023-04-03T12:14:03;7.83;49.73
64961;SHT31;51487;52.266;10.542;2023-04-03T12:16:32;7.36;49.60
64961;SHT31;51487;52.266;10.542;2023-04-03T12:19:00;7.35;50.55
64961;SHT31;51487;52.266;10.542;2023-04-03T12:24:23;7.83;49.80
64961;SHT31;51487;52.266;10.542;2023-04-03T12:27:07;8.12;50.35
64961;SHT31;51487;52.266;10.542;2023-04-03T12:29:39;7.84;50.56
64961;SHT31;51487;52.266;10.542;2023-04-03T12:35:28;7.26;49.11
64961;SHT31;51487;52.266;10.542;2023-04-03T12:48:25;7.02;51.73
64961;SHT31;51487;52.266;10.542;2023-04-03T12:50:51;6.74;51.70
64961;SHT31;51487;52.266;10.542;2023-04-03T12:53:33;6.80;50.22
64961;SHT31;51487;52.266;10.542;2023-04-03T12:56:38;6.91;49.90
64961;SHT31;51487;52.266;10.542;2023-04-03T13:01:40;7.47;49.22
64961;SHT31;51487;52.266;10.542;2023-04-03T13:04:05;7.42;49.47
64961;SHT31;51487;52.266;10.542;2023-04-03T13:06:38;7.35;50.17
64961;SHT31;51487;52.266;10.542;2023-04-03T13:09:06;7.09;50.31
64961;SHT31;51487;52.266;10.542;2023-04-03T13:11:42;6.77;50.76
64961;SHT31;51487;52.266;10.542;2023-04-03T13:14:21;6.92;50.72
64961;SHT31;51487;52.266;10.542;2023-04-03T13:19:28;7.32;49.45
64961;SHT31;51487;52.266;10.542;2023-04-03T13:21:59;7.52;48.64
64961;SHT31;51487;52.266;10.542;2023-04-03T13:24:27;7.43;48.54
64961;SHT31;51487;52.266;10.542;2023-04-03T13:26:54;7.73;48.19
64961;SHT31;51487;52.266;10.542;2023-04-03T13:29:39;7.90;48.96
64961;SHT31;51487;52.266;10.542;2023-04-03T13:32:06;8.24;48.42
64961;SHT31;51487;52.266;10.542;2023-04-03T13:34:38;8.12;48.78
64961;SHT31;51487;52.266;10.542;2023-04-03T13:37:06;7.94;48.94
64961;SHT31;51487;52.266;10.542;2023-04-03T13:39:36;7.57;49.06
64961;SHT31;51487;52.266;10.542;2023-04-03T13:42:16;7.30;49.09
64961;SHT31;51487;52.266;10.542;2023-04-03T13:44:42;7.23;49.35
64961;SHT31;51487;52.266;10.542;2023-04-03T13:47:22;6.92;48.91
64961;SHT31;51487;52.266;10.542;2023-04-03T13:50:13;7.08;49.71
64961;SHT31;51487;52.266;10.542;2023-04-03T13:55:31;7.62;49.30
64961;SHT31;51487;52.266;10.542;2023-04-03T14:00:48;7.93;47.45
64961;SHT31;51487;52.266;10.542;2023-04-03T14:03:29;7.80;48.40
64961;SHT31;51487;52.266;10.542;2023-04-03T14:05:55;7.70;49.00
64961;SHT31;51487;52.266;10.542;2023-04-03T14:08:21;7.73;48.95
64961;SHT31;51487;52.266;10.542;2023-04-03T14:10:47;7.81;48.74
64961;SHT31;51487;52.266;10.542;2023-04-03T14:13:15;7.81;47.70
64961;SHT31;51487;52.266;10.542;2023-04-03T14:15:41;7.55;48.31
64961;SHT31;51487;52.266;10.542;2023-04-03T14:18:11;7.59;49.33
64961;SHT31;51487;52.266;10.542;2023-04-03T14:20:37;7.47;48.76
64961;SHT31;51487;52.266;10.542;2023-04-03T14:23:02;7.28;49.59
64961;SHT31;51487;52.266;10.542;2023-04-03T14:25:28;7.20;49.23
64961;SHT31;51487;52.266;10.542;2023-04-03T14:27:54;7.45;48.78
64961;SHT31;51487;52.266;10.542;2023-04-03T14:30:29;7.71;48.29
64961;SHT31;51487;52.266;10.542;2023-04-03T14:32:55;7.88;47.56
64961;SHT31;51487;52.266;10.542;2023-04-03T14:35:21;7.94;47.78
64961;SHT31;51487;52.266;10.542;2023-04-03T14:37:47;7.80;48.76
64961;SHT31;51487;52.266;10.542;2023-04-03T14:40:17;7.47;48.94
64961;SHT31;51487;52.266;10.542;2023-04-03T14:42:44;7.28;49.38
64961;SHT31;51487;52.266;10.542;2023-04-03T14:45:11;7.11;49.37
64961;SHT31;51487;52.266;10.542;2023-04-03T14:47:51;7.11;49.56
64961;SHT31;51487;52.266;10.542;2023-04-03T14:50:23;7.28;48.94
64961;SHT31;51487;52.266;10.542;2023-04-03T14:52:51;7.52;48.69
64961;SHT31;51487;52.266;10.542;2023-04-03T14:55:19;7.83;48.63
64961;SHT31;51487;52.266;10.542;2023-04-03T14:57:45;7.97;46.77
64961;SHT31;51487;52.266;10.542;2023-04-03T15:00:21;7.93;47.72
64961;SHT31;51487;52.266;10.542;2023-04-03T15:02:47;8.02;47.50
64961;SHT31;51487;52.266;10.542;2023-04-03T15:05:14;7.74;48.20
64961;SHT31;51487;52.266;10.542;2023-04-03T15:07:42;7.87;49.08
64961;SHT31;51487;52.266;10.542;2023-04-03T15:12:39;7.95;48.78
64961;SHT31;51487;52.266;10.542;2023-04-03T15:15:06;7.73;49.43
64961;SHT31;51487;52.266;10.542;2023-04-03T15:17:31;7.62;50.30
64961;SHT31;51487;52.266;10.542;2023-04-03T15:19:58;7.45;49.31
64961;SHT31;51487;52.266;10.542;2023-04-03T15:22:23;7.29;49.15
64961;SHT31;51487;52.266;10.542;2023-04-03T15:24:48;7.28;47.83
64961;SHT31;51487;52.266;10.542;2023-04-03T15:27:14;7.35;48.08
64961;SHT31;51487;52.266;10.542;2023-04-03T15:29:42;7.50;47.93
64961;SHT31;51487;52.266;10.542;2023-04-03T15:32:08;7.81;47.25
64961;SHT31;51487;52.266;10.542;2023-04-03T15:34:34;7.99;47.00
64961;SHT31;51487;52.266;10.542;2023-04-03T15:37:00;8.02;46.81
64961;SHT31;51487;52.266;10.542;2023-04-03T15:39:26;8.07;47.06
64961;SHT31;51487;52.266;10.542;2023-04-03T15:41:51;8.20;46.92
64961;SHT31;51487;52.266;10.542;2023-04-03T15:44:17;8.18;47.99
64961;SHT31;51487;52.266;10.542;2023-04-03T15:46:44;8.24;47.97
64961;SHT31;51487;52.266;10.542;2023-04-03T15:49:10;8.12;47.80
64961;SHT31;51487;52.266;10.542;2023-04-03T15:51:36;7.71;49.26
64961;SHT31;51487;52.266;10.542;2023-04-03T15:54:01;7.53;49.40
64961;SHT31;51487;52.266;10.542;2023-04-03T15:56:26;7.39;50.54
64961;SHT31;51487;52.266;10.542;2023-04-03T15:58:52;7.02;50.32
64961;SHT31;51487;52.266;10.542;2023-04-03T16:01:17;6.83;50.01
64961;SHT31;51487;52.266;10.542;2023-04-03T16:03:43;6.91;50.22
64961;SHT31;51487;52.266;10.542;2023-04-03T16:06:14;6.89;49.62
64961;SHT31;51487;52.266;10.542;2023-04-03T16:08:41;6.80;49.16
64961;SHT31;51487;52.266;10.542;2023-04-03T16:11:07;6.77;48.95
64961;SHT31;51487;52.266;10.542;2023-04-03T16:13:32;6.68;49.29
64961;SHT31;51487;52.266;10.542;2023-04-03T16:15:59;6.63;49.57
64961;SHT31;51487;52.266;10.542;2023-04-03T16:18:25;6.81;49.35
64961;SHT31;51487;52.266;10.542;2023-04-03T16:20:51;7.04;49.10
64961;SHT31;51487;52.266;10.542;2023-04-03T16:23:17;7.07;49.44
64961;SHT31;51487;52.266;10.542;2023-04-03T16:25:42;8.90;62.08
64961;SHT31;51487;52.266;10.542;2023-04-03T16:28:12;9.14;46.67
64961;SHT31;51487;52.266;10.542;2023-04-03T16:30:42;8.94;48.61
64961;SHT31;51487;52.266;10.542;2023-04-03T16:33:08;9.03;46.16
64961;SHT31;51487;52.266;10.542;2023-04-03T16:35:34;8.44;46.95
64961;SHT31;51487;52.266;10.542;2023-04-03T16:38:00;7.90;47.25
64961;SHT31;51487;52.266;10.542;2023-04-03T16:40:25;7.36;48.87
64961;SHT31;51487;52.266;10.542;2023-04-03T16:42:50;7.18;49.54
64961;SHT31;51487;52.266;10.542;2023-04-03T16:45:16;6.89;50.60
64961;SHT31;51487;52.266;10.542;2023-04-03T16:47:41;6.67;50.11
64961;SHT31;51487;52.266;10.542;2023-04-03T16:50:07;6.54;50.77
64961;SHT31;51487;52.266;10.542;2023-04-03T16:52:33;6.57;51.28
64961;SHT31;51487;52.266;10.542;2023-04-03T16:54:58;6.53;51.46
64961;SHT31;51487;52.266;10.542;2023-04-03T16:57:24;6.49;51.56
64961;SHT31;51487;52.266;10.542;2023-04-03T16:59:50;6.41;51.04
64961;SHT31;51487;52.266;10.542;2023-04-03T17:02:16;6.57;51.25
64961;SHT31;51487;52.266;10.542;2023-04-03T17:04:42;6.53;50.87
64961;SHT31;51487;52.266;10.542;2023-04-03T17:07:07;6.51;51.16
64961;SHT31;51487;52.266;10.542;2023-04-03T17:09:33;6.53;50.77
64961;SHT31;51487;52.266;10.542;2023-04-03T17:11:58;6.43;50.84
64961;SHT31;51487;52.266;10.542;2023-04-03T17:14:24;6.33;51.34
64961;SHT31;51487;52.266;10.542;2023-04-03T17:16:50;6.30;51.55
64961;SHT31;51487;52.266;10.542;2023-04-03T17:19:16;6.12;51.51
64961;SHT31;51487;52.266;10.542;2023-04-03T17:21:42;6.22;51.95
64961;SHT31;51487;52.266;10.542;2023-04-03T17:24:09;6.19;52.24